CheckWX is a tool to help pilots better visualize weather data.  It is not intended as a substitute for an official pre-flight weather briefing.

12:52:14 UTC

KSFF METAR
Felts Field Airport
Spokane, Washington, USA
Current

59 mins ago

KSFF 251153Z AUTO 00000KT 10SM CLR M03/M06 A3055 RMK AO2 SLP362 T10281056 10011 21033 51011
Observed
Feb-25 @ 11:53 UTC
Visibility
10 SM
Flight Rules
VFR
Cloud Levels
  • Clear skies
Temperature
-3°C / 27°F
Dewpoint
-6°C / 21°F
Humidity
80%
Altimeter
30.55" Hg
Pressure
1034.52 hPa
Previous

2 hours ago

KSFF 251053Z AUTO 00000KT 10SM CLR M03/M06 A3054 RMK AO2 SLP358 T10281056
Observed
Feb-25 @ 10:53 UTC
Visibility
10 SM
Flight Rules
VFR
Cloud Levels
  • Clear skies
Temperature
-3°C / 27°F
Dewpoint
-6°C / 21°F
Humidity
80%
Altimeter
30.54" Hg
Pressure
1034.22 hPa
Previous

3 hours ago

KSFF 250953Z AUTO 00000KT 10SM CLR M02/M05 A3053 RMK AO2 SLP356 T10221050
Observed
Feb-25 @ 09:53 UTC
Visibility
10 SM
Flight Rules
VFR
Cloud Levels
  • Clear skies
Temperature
-2°C / 28°F
Dewpoint
-5°C / 23°F
Humidity
80%
Altimeter
30.53" Hg
Pressure
1033.82 hPa